West Warwick, Rhode Island
Current Conditions -  °F | °C
As of 7:24 PM on Wednesday 22 Oct 2014 (Local Time) from KPVD Reporting Station
Moderate Rain Moderate Rain  
Wind Chill: 52°   Ceiling: 1000
Heat Index: 52°   Visibility: 2.5mi
Dew Point: 51°   Wind: 26mph
Humidity: 97%   Direction: 360°N
Pressure: 29.75"   Gusts: 32mph
Location:  41.71°N, 71.52°W
Report Text: KPVD 222324Z 36023G28KT 2 1/2SM RA BR OVC010 11/11 A2975 RMK AO2 PK WND 01032/2255 PRESFR P0002 T01110106
Loading
Personal Weather Stations






























Interactive Weather Map
Tropical Storm Tracking
New forecast layout! Learn more

10-Day Weather Forecast

Advertisements
Track Severe Weather on mobile